createdAt,value
2022-09-26T00:00:21.018Z,81
2022-09-26T00:01:27.630Z,82
2022-09-26T00:02:34.799Z,82
2022-09-26T00:03:41.961Z,82
2022-09-26T00:04:48.959Z,82
2022-09-26T00:05:56.073Z,82
2022-09-26T00:07:03.139Z,82
2022-09-26T00:08:09.729Z,82
2022-09-26T00:09:16.906Z,82
2022-09-26T00:10:23.931Z,82
2022-09-26T00:11:31.031Z,82
2022-09-26T00:12:38.135Z,82
2022-09-26T00:13:44.730Z,81
2022-09-26T00:14:52.136Z,81
2022-09-26T00:15:58.970Z,81
2022-09-26T00:17:06.705Z,81
2022-09-26T00:19:20.333Z,81
2022-09-26T00:20:26.886Z,81
2022-09-26T00:21:33.962Z,81
2022-09-26T00:22:41.054Z,81
2022-09-26T00:23:47.682Z,81
2022-09-26T00:24:54.916Z,80
2022-09-26T00:26:02.380Z,80
2022-09-26T00:27:08.985Z,80
2022-09-26T00:28:16.072Z,80
2022-09-26T00:29:23.125Z,81
2022-09-26T00:30:29.874Z,81
2022-09-26T00:31:36.877Z,81
2022-09-26T00:32:43.990Z,81
2022-09-26T00:33:51.146Z,81
2022-09-26T00:36:04.766Z,81
2022-09-26T00:37:11.915Z,82
2022-09-26T00:38:18.969Z,82
2022-09-26T00:39:27.060Z,82
2022-09-26T00:40:32.723Z,82
2022-09-26T00:41:40.330Z,82
2022-09-26T00:42:46.916Z,82
2022-09-26T00:43:53.988Z,82
2022-09-26T00:45:01.149Z,82
2022-09-26T00:46:07.860Z,82
2022-09-26T00:47:14.735Z,81
2022-09-26T00:48:21.892Z,81
2022-09-26T00:49:28.981Z,81
2022-09-26T00:50:36.130Z,81
2022-09-26T00:51:42.747Z,81
2022-09-26T00:52:49.857Z,81
2022-09-26T00:53:56.934Z,81
2022-09-26T00:55:03.966Z,81
2022-09-26T00:56:11.110Z,81
2022-09-26T00:57:17.739Z,80
2022-09-26T00:58:25.315Z,80
2022-09-26T00:59:31.929Z,80
2022-09-26T01:00:42.236Z,80
2022-09-26T01:01:45.816Z,80
2022-09-26T01:04:00.413Z,80
2022-09-26T01:05:06.907Z,80
2022-09-26T01:06:13.970Z,80
2022-09-26T01:07:21.155Z,79
2022-09-26T01:08:27.730Z,79
2022-09-26T01:09:35.079Z,79
2022-09-26T01:11:49.062Z,79
2022-09-26T01:12:56.150Z,80
2022-09-26T01:14:02.716Z,80
2022-09-26T01:15:10.241Z,80
2022-09-26T01:16:17.013Z,80
2022-09-26T01:17:23.990Z,80
2022-09-26T01:18:31.171Z,80
2022-09-26T01:19:37.740Z,80
2022-09-26T01:20:44.825Z,80
2022-09-26T01:22:59.051Z,80
2022-09-26T01:24:05.675Z,81
2022-09-26T01:25:12.724Z,81
2022-09-26T01:26:19.862Z,81
2022-09-26T01:27:26.926Z,81
2022-09-26T01:28:34.049Z,81
2022-09-26T01:29:40.623Z,81
2022-09-26T01:30:47.844Z,80
2022-09-26T01:31:54.813Z,81
2022-09-26T01:33:01.969Z,81
2022-09-26T01:34:09.097Z,81
2022-09-26T01:35:15.611Z,81
2022-09-26T01:36:22.834Z,82
2022-09-26T01:37:29.873Z,82
2022-09-26T01:38:36.945Z,82
2022-09-26T01:39:44.562Z,83
2022-09-26T01:40:50.718Z,83
2022-09-26T01:41:57.800Z,83
2022-09-26T01:43:04.865Z,83
2022-09-26T01:44:12.019Z,83
2022-09-26T01:45:19.106Z,83
2022-09-26T01:46:25.727Z,83
2022-09-26T01:47:33.249Z,83
2022-09-26T01:48:39.886Z,83
2022-09-26T01:49:47.001Z,83
2022-09-26T01:50:54.161Z,83
2022-09-26T01:52:00.656Z,84
2022-09-26T01:53:07.745Z,84
2022-09-26T01:54:14.840Z,83
2022-09-26T01:55:22.016Z,83
2022-09-26T01:56:29.145Z,83
2022-09-26T01:57:35.683Z,83
2022-09-26T02:00:57.001Z,82
2022-09-26T02:02:04.309Z,82
2022-09-26T02:03:10.712Z,82
2022-09-26T02:04:17.822Z,82
2022-09-26T02:05:24.875Z,83
2022-09-26T02:06:31.982Z,82
2022-09-26T02:07:39.077Z,83
2022-09-26T02:08:45.673Z,83
2022-09-26T02:09:52.804Z,83
2022-09-26T02:10:59.931Z,83
2022-09-26T02:12:07.034Z,83
2022-09-26T02:13:14.094Z,83
2022-09-26T02:14:20.698Z,83
2022-09-26T02:15:27.828Z,83
2022-09-26T02:16:35.041Z,83
2022-09-26T02:17:42.044Z,83
2022-09-26T02:18:49.151Z,83
2022-09-26T02:19:55.726Z,83
2022-09-26T02:21:03.320Z,83
2022-09-26T02:22:15.350Z,83
2022-09-26T02:23:20.859Z,83
2022-09-26T02:24:23.616Z,82
2022-09-26T02:31:05.682Z,81
2022-09-26T02:32:13.059Z,81
2022-09-26T02:33:19.936Z,81
2022-09-26T02:34:27.062Z,81
2022-09-26T02:35:33.604Z,81
2022-09-26T02:36:40.774Z,81
2022-09-26T02:37:47.852Z,82
2022-09-26T02:41:08.614Z,82
2022-09-26T02:42:15.725Z,82
2022-09-26T02:43:22.918Z,82
2022-09-26T02:44:33.426Z,82
2022-09-26T02:45:37.137Z,82
2022-09-26T02:46:43.583Z,82
2022-09-26T02:47:50.718Z,82
2022-09-26T02:48:57.882Z,82
2022-09-26T02:50:04.952Z,82
2022-09-26T02:51:12.097Z,82
2022-09-26T02:52:18.703Z,83
2022-09-26T02:53:25.764Z,83
2022-09-26T02:54:32.855Z,83
2022-09-26T02:55:43.892Z,83
2022-09-26T02:56:49.363Z,83
2022-09-26T02:57:53.640Z,83
2022-09-26T02:59:00.782Z,83
2022-09-26T03:00:07.900Z,83
2022-09-26T03:01:14.435Z,83
2022-09-26T03:05:42.887Z,82
2022-09-26T03:06:49.990Z,82
2022-09-26T03:07:57.073Z,82
2022-09-26T03:09:03.681Z,82
2022-09-26T03:10:10.785Z,82
2022-09-26T03:11:17.914Z,82
2022-09-26T03:12:24.999Z,82
2022-09-26T03:13:32.111Z,82
2022-09-26T03:14:38.701Z,81
2022-09-26T03:15:46.319Z,81
2022-09-26T03:16:52.982Z,81
2022-09-26T03:18:00.023Z,81
2022-09-26T03:19:07.119Z,81
2022-09-26T03:20:13.680Z,81
2022-09-26T03:21:20.821Z,81
2022-09-26T03:22:27.986Z,81
2022-09-26T03:23:35.030Z,80
2022-09-26T03:24:42.120Z,80
2022-09-26T03:25:48.746Z,80
2022-09-26T03:26:55.777Z,80
2022-09-26T03:28:02.921Z,80
2022-09-26T03:30:17.103Z,79
2022-09-26T03:31:23.734Z,79
2022-09-26T03:32:30.838Z,79
2022-09-26T03:33:38.913Z,79
2022-09-26T03:34:44.982Z,79
2022-09-26T03:35:52.144Z,79
2022-09-26T03:36:58.671Z,79
2022-09-26T03:38:05.819Z,79
2022-09-26T03:39:13.072Z,79
2022-09-26T03:40:20.040Z,79
2022-09-26T03:41:27.141Z,79
2022-09-26T03:42:33.707Z,79
2022-09-26T03:44:47.953Z,78
2022-09-26T03:45:55.123Z,78
2022-09-26T03:47:02.153Z,78
2022-09-26T03:48:08.694Z,78
2022-09-26T03:49:15.866Z,78
2022-09-26T03:50:23.033Z,78
2022-09-26T03:51:30.018Z,78
2022-09-26T03:52:37.172Z,78
2022-09-26T03:53:43.671Z,78
2022-09-26T03:54:50.852Z,78
2022-09-26T03:55:57.913Z,78
2022-09-26T03:58:11.675Z,78
2022-09-26T03:59:18.717Z,78
2022-09-26T04:00:25.780Z,78
2022-09-26T04:01:33.030Z,78
2022-09-26T04:02:40.232Z,78
2022-09-26T04:03:50.554Z,78
2022-09-26T04:04:53.686Z,78
2022-09-26T04:06:00.820Z,78
2022-09-26T04:07:07.942Z,78
2022-09-26T04:08:15.041Z,77
2022-09-26T04:09:22.044Z,77
2022-09-26T04:10:30.028Z,77
2022-09-26T04:11:35.894Z,77
2022-09-26T04:12:42.910Z,77
2022-09-26T04:13:52.417Z,77
2022-09-26T04:14:56.661Z,77
2022-09-26T04:16:03.941Z,77
2022-09-26T04:17:10.883Z,77
2022-09-26T04:18:17.990Z,77
2022-09-26T04:19:25.017Z,77
2022-09-26T04:20:31.622Z,77
2022-09-26T04:21:38.813Z,77
2022-09-26T04:22:45.894Z,77
2022-09-26T04:23:52.920Z,76
2022-09-26T04:26:06.681Z,76
2022-09-26T04:27:13.753Z,76
2022-09-26T04:28:20.834Z,76
2022-09-26T04:29:28.011Z,76
2022-09-26T04:30:35.108Z,76
2022-09-26T04:31:41.908Z,76
2022-09-26T04:33:56.242Z,76
2022-09-26T04:35:03.018Z,76
2022-09-26T04:36:10.110Z,76
2022-09-26T04:37:16.667Z,76
2022-09-26T04:38:23.780Z,76
2022-09-26T04:39:30.881Z,76
2022-09-26T04:40:42.546Z,76
2022-09-26T04:41:45.086Z,76
2022-09-26T04:42:51.713Z,77
2022-09-26T04:43:59.342Z,77
2022-09-26T04:45:06.023Z,76
2022-09-26T04:46:15.957Z,76
2022-09-26T04:47:19.611Z,76
2022-09-26T04:48:26.713Z,76
2022-09-26T04:49:33.756Z,76
2022-09-26T04:50:41.088Z,76
2022-09-26T04:51:48.043Z,76
2022-09-26T04:52:54.557Z,76
2022-09-26T04:54:01.695Z,76
2022-09-26T04:55:08.785Z,76
2022-09-26T04:56:15.901Z,76
2022-09-26T04:57:23.002Z,76
2022-09-26T04:58:29.614Z,76
2022-09-26T04:59:36.693Z,76
2022-09-26T05:00:43.883Z,76
2022-09-26T05:01:51.202Z,76
2022-09-26T05:02:58.063Z,76
2022-09-26T05:04:04.569Z,76
2022-09-26T05:05:11.669Z,76
2022-09-26T05:07:25.952Z,76
2022-09-26T05:08:33.014Z,76
2022-09-26T05:09:39.645Z,76
2022-09-26T05:10:46.776Z,76
2022-09-26T05:11:53.784Z,76
2022-09-26T05:13:01.278Z,76
2022-09-26T05:14:08.071Z,76
2022-09-26T05:15:14.584Z,77
2022-09-26T05:16:21.847Z,77
2022-09-26T05:17:28.862Z,77
2022-09-26T05:18:36.012Z,77
2022-09-26T05:19:43.012Z,77
2022-09-26T05:20:49.648Z,76
2022-09-26T05:21:56.724Z,76
2022-09-26T05:23:03.819Z,76
2022-09-26T05:24:11.002Z,76
2022-09-26T05:25:18.039Z,76
2022-09-26T05:26:24.582Z,76
2022-09-26T05:28:38.861Z,76
2022-09-26T05:29:46.514Z,76
2022-09-26T05:30:53.040Z,76
2022-09-26T05:31:59.726Z,76
2022-09-26T05:33:06.788Z,76
2022-09-26T05:34:19.163Z,76
2022-09-26T05:37:34.648Z,77
2022-09-26T05:38:41.787Z,77
2022-09-26T05:39:48.889Z,77
2022-09-26T05:40:56.024Z,77
2022-09-26T05:42:03.039Z,77
2022-09-26T05:43:09.664Z,77
2022-09-26T05:44:16.780Z,78
2022-09-26T05:45:23.820Z,78
2022-09-26T05:46:31.021Z,78
2022-09-26T05:48:44.677Z,78
2022-09-26T05:49:51.802Z,78
2022-09-26T05:50:58.895Z,78
2022-09-26T05:52:06.056Z,78
2022-09-26T05:53:13.090Z,78
2022-09-26T05:54:19.655Z,79
2022-09-26T05:56:33.896Z,79
2022-09-26T05:57:41.032Z,79
2022-09-26T05:58:48.066Z,79
2022-09-26T05:59:54.694Z,79
2022-09-26T06:01:01.851Z,79
2022-09-26T06:02:09.038Z,79
2022-09-26T06:03:16.015Z,79
2022-09-26T06:04:22.587Z,79
2022-09-26T06:05:29.702Z,79
2022-09-26T06:06:36.771Z,79
2022-09-26T06:07:43.955Z,79
2022-09-26T06:08:51.060Z,79
2022-09-26T06:09:57.613Z,79
2022-09-26T06:11:04.686Z,79
2022-09-26T06:12:12.362Z,79
2022-09-26T06:13:19.223Z,79
2022-09-26T06:14:26.041Z,79
2022-09-26T06:15:32.634Z,79
2022-09-26T06:16:39.904Z,79
2022-09-26T06:17:46.832Z,79
2022-09-26T06:18:54.297Z,79
2022-09-26T06:20:01.020Z,79
2022-09-26T06:21:07.632Z,79
2022-09-26T06:22:14.721Z,79
2022-09-26T06:24:29.772Z,79
2022-09-26T06:25:36.017Z,79
2022-09-26T06:26:43.631Z,79
2022-09-26T06:27:49.753Z,79
2022-09-26T06:30:04.885Z,80
2022-09-26T06:31:11.113Z,80
2022-09-26T06:32:17.686Z,80
2022-09-26T06:33:24.722Z,80
2022-09-26T06:34:31.853Z,80
2022-09-26T06:35:39.007Z,80
2022-09-26T06:36:46.079Z,80
2022-09-26T06:37:52.616Z,80
2022-09-26T06:38:59.719Z,80
2022-09-26T06:41:13.925Z,80
2022-09-26T06:42:21.069Z,80
2022-09-26T06:43:27.655Z,80
2022-09-26T06:44:34.714Z,80
2022-09-26T06:45:41.881Z,80
2022-09-26T06:46:49.451Z,80
2022-09-26T06:47:56.057Z,80
2022-09-26T06:49:02.588Z,80
2022-09-26T06:50:09.784Z,80
2022-09-26T06:51:16.877Z,80
2022-09-26T06:52:23.905Z,81
2022-09-26T06:53:31.086Z,81
2022-09-26T06:54:37.689Z,81
2022-09-26T06:55:44.762Z,81
2022-09-26T06:56:52.169Z,81
2022-09-26T06:57:59.009Z,81
2022-09-26T06:59:06.186Z,81
2022-09-26T07:00:12.649Z,81
2022-09-26T07:01:19.974Z,81
2022-09-26T07:02:27.181Z,81
2022-09-26T07:04:41.067Z,81
2022-09-26T07:05:47.697Z,81
2022-09-26T07:06:54.795Z,81
2022-09-26T07:08:02.084Z,81
2022-09-26T07:09:12.225Z,81
2022-09-26T07:11:50.524Z,81
2022-09-26T07:12:29.806Z,81
2022-09-26T07:13:36.955Z,80
2022-09-26T07:14:44.168Z,80
2022-09-26T07:15:50.679Z,80
2022-09-26T07:16:57.684Z,80
2022-09-26T07:18:04.776Z,80
2022-09-26T07:19:11.975Z,80
2022-09-26T07:20:18.992Z,80
2022-09-26T07:21:25.630Z,80
2022-09-26T07:22:32.692Z,80
2022-09-26T07:23:39.792Z,79
2022-09-26T07:24:47.310Z,79
2022-09-26T07:25:53.512Z,80
2022-09-26T07:27:00.545Z,79
2022-09-26T07:28:07.751Z,79
2022-09-26T07:29:14.980Z,79
2022-09-26T07:30:21.982Z,79
2022-09-26T07:31:29.072Z,79
2022-09-26T07:32:35.545Z,79
2022-09-26T07:33:42.702Z,78
2022-09-26T07:34:49.839Z,78
2022-09-26T07:35:59.740Z,78
2022-09-26T07:37:03.968Z,78
2022-09-26T07:38:10.652Z,78
2022-09-26T07:39:17.772Z,78
2022-09-26T07:40:25.585Z,78
2022-09-26T07:41:31.912Z,78
2022-09-26T07:42:39.052Z,78
2022-09-26T07:45:20.887Z,78
2022-09-26T07:45:59.817Z,78
2022-09-26T07:47:06.949Z,78
2022-09-26T07:48:13.984Z,78
2022-09-26T07:49:20.602Z,78
2022-09-26T07:50:27.783Z,79
2022-09-26T07:52:41.941Z,79
2022-09-26T07:54:55.603Z,79
2022-09-26T07:56:02.740Z,79
2022-09-26T07:57:09.869Z,80
2022-09-26T07:58:16.893Z,80
2022-09-26T07:59:24.009Z,80
2022-09-26T08:00:31.081Z,80
2022-09-26T08:01:37.813Z,80
2022-09-26T08:02:44.906Z,80
2022-09-26T08:03:51.972Z,80
2022-09-26T08:05:01.098Z,80
2022-09-26T08:06:05.631Z,80
2022-09-26T08:07:12.759Z,80
2022-09-26T08:08:22.768Z,80
2022-09-26T08:09:26.974Z,80
2022-09-26T08:10:37.985Z,81
2022-09-26T08:11:40.634Z,81
2022-09-26T08:12:47.770Z,81
2022-09-26T08:13:54.826Z,81
2022-09-26T08:15:02.006Z,81
2022-09-26T08:16:08.625Z,81
2022-09-26T08:17:15.642Z,81
2022-09-26T08:18:22.754Z,81
2022-09-26T08:19:29.878Z,81
2022-09-26T08:20:36.978Z,81
2022-09-26T08:22:50.692Z,81
2022-09-26T08:23:57.785Z,81
2022-09-26T08:25:04.892Z,81
2022-09-26T08:26:11.998Z,81
2022-09-26T08:27:18.655Z,81
2022-09-26T08:28:25.675Z,81
2022-09-26T08:29:32.772Z,81
2022-09-26T08:30:39.911Z,81
2022-09-26T08:34:00.674Z,81
2022-09-26T08:35:07.790Z,81
2022-09-26T08:36:21.660Z,81
2022-09-26T08:37:22.040Z,80
2022-09-26T08:38:28.645Z,80
2022-09-26T08:39:35.862Z,80
2022-09-26T08:40:42.875Z,80
2022-09-26T08:41:49.919Z,80
2022-09-26T08:42:57.001Z,80
2022-09-26T08:44:03.613Z,80
2022-09-26T08:45:10.733Z,80
2022-09-26T08:46:17.884Z,80
2022-09-26T08:48:31.995Z,79
2022-09-26T08:50:45.700Z,79
2022-09-26T08:51:52.797Z,79
2022-09-26T08:52:59.943Z,79
2022-09-26T08:54:12.077Z,78
2022-09-26T08:58:34.917Z,78
2022-09-26T08:59:42.032Z,78
2022-09-26T09:00:48.590Z,78
2022-09-26T09:04:10.017Z,78
2022-09-26T09:05:17.023Z,78
2022-09-26T09:06:23.599Z,78
2022-09-26T09:07:30.731Z,77
2022-09-26T09:08:37.843Z,77
2022-09-26T09:09:44.936Z,77
2022-09-26T09:10:52.019Z,77
2022-09-26T09:11:58.653Z,77
2022-09-26T09:13:05.714Z,77
2022-09-26T09:15:25.787Z,77
2022-09-26T09:16:27.145Z,77
2022-09-26T09:17:33.579Z,77
2022-09-26T09:18:40.742Z,77
2022-09-26T09:19:47.887Z,77
2022-09-26T09:20:54.952Z,77
2022-09-26T09:22:02.039Z,76
2022-09-26T09:23:09.354Z,76
2022-09-26T09:24:15.851Z,76
2022-09-26T09:25:22.839Z,76
2022-09-26T09:27:52.762Z,76
2022-09-26T09:28:43.791Z,76
2022-09-26T09:29:50.732Z,76
2022-09-26T09:30:57.950Z,77
2022-09-26T09:32:04.920Z,77
2022-09-26T09:33:12.147Z,77
2022-09-26T09:34:19.417Z,77
2022-09-26T09:35:25.789Z,77
2022-09-26T09:36:32.856Z,77
2022-09-26T09:37:40.048Z,77
2022-09-26T09:38:47.202Z,77
2022-09-26T09:39:53.664Z,78
2022-09-26T09:41:01.022Z,78
2022-09-26T09:42:08.109Z,78
2022-09-26T09:43:14.993Z,78
2022-09-26T09:44:23.060Z,78
2022-09-26T09:45:28.645Z,78
2022-09-26T09:46:35.889Z,78
2022-09-26T09:47:43.131Z,78
2022-09-26T09:48:52.686Z,78
2022-09-26T09:49:57.253Z,78
2022-09-26T09:52:10.733Z,79
2022-09-26T09:53:17.835Z,79
2022-09-26T09:54:24.978Z,79
2022-09-26T09:56:38.716Z,79
2022-09-26T09:58:52.841Z,78
2022-09-26T10:00:01.985Z,78
2022-09-26T10:01:09.032Z,78
2022-09-26T10:02:13.796Z,78
2022-09-26T10:03:20.932Z,78
2022-09-26T10:04:27.852Z,78
2022-09-26T10:05:34.963Z,78
2022-09-26T10:06:46.529Z,78
2022-09-26T10:07:48.747Z,78
2022-09-26T10:08:55.751Z,78
2022-09-26T10:10:03.381Z,78
2022-09-26T10:11:10.002Z,78
2022-09-26T10:12:22.143Z,78
2022-09-26T10:13:24.011Z,78
2022-09-26T10:14:30.967Z,78
2022-09-26T10:15:37.966Z,78
2022-09-26T10:16:45.031Z,78
2022-09-26T10:18:06.561Z,78
2022-09-26T10:19:03.094Z,78
2022-09-26T10:21:12.913Z,78
2022-09-26T10:22:20.033Z,78
2022-09-26T10:23:26.678Z,78
2022-09-26T10:24:33.696Z,79
2022-09-26T10:25:40.832Z,79
2022-09-26T10:26:49.777Z,79
2022-09-26T10:27:55.105Z,79
2022-09-26T10:29:02.157Z,79
2022-09-26T10:30:09.292Z,79
2022-09-26T10:31:16.048Z,79
2022-09-26T10:32:22.937Z,79
2022-09-26T10:33:29.799Z,79
2022-09-26T10:34:36.697Z,79
2022-09-26T10:35:43.731Z,79
2022-09-26T10:37:57.934Z,79
2022-09-26T10:39:04.510Z,78
2022-09-26T10:40:11.818Z,78
2022-09-26T10:41:18.743Z,78
2022-09-26T10:42:31.401Z,78
2022-09-26T10:43:34.078Z,78
2022-09-26T10:44:40.162Z,78
2022-09-26T10:45:46.928Z,78
2022-09-26T10:46:53.848Z,78
2022-09-26T10:48:00.847Z,78
2022-09-26T10:49:08.036Z,77
2022-09-26T10:50:15.120Z,77
2022-09-26T10:51:21.615Z,77
2022-09-26T10:52:28.782Z,76
2022-09-26T10:53:37.240Z,76
2022-09-26T10:55:50.211Z,76
2022-09-26T10:56:56.636Z,76
2022-09-26T10:58:03.707Z,76
2022-09-26T10:59:11.040Z,76
2022-09-26T11:00:27.180Z,76
2022-09-26T11:01:24.954Z,76
2022-09-26T11:02:31.669Z,76
2022-09-26T11:03:38.888Z,76
2022-09-26T11:04:45.900Z,76
2022-09-26T11:05:52.998Z,77
2022-09-26T11:06:59.650Z,77
2022-09-26T11:08:06.688Z,77
2022-09-26T11:09:13.826Z,77
2022-09-26T11:10:20.975Z,77
2022-09-26T11:11:28.011Z,77
2022-09-26T11:12:35.114Z,77
2022-09-26T11:13:43.198Z,77
2022-09-26T11:14:48.773Z,77
2022-09-26T11:17:03.065Z,77
2022-09-26T11:19:16.702Z,77
2022-09-26T11:20:23.800Z,78
2022-09-26T11:21:30.913Z,78
2022-09-26T11:22:38.035Z,78
2022-09-26T11:23:44.577Z,78
2022-09-26T11:24:51.654Z,78
2022-09-26T11:25:58.792Z,78
2022-09-26T11:27:05.853Z,78
2022-09-26T11:28:13.035Z,78
2022-09-26T11:29:19.585Z,78
2022-09-26T11:30:26.767Z,78
2022-09-26T11:31:33.869Z,77
2022-09-26T11:32:40.940Z,77
2022-09-26T11:33:48.039Z,77
2022-09-26T11:34:54.607Z,77
2022-09-26T11:36:02.756Z,77
2022-09-26T11:37:08.851Z,77
2022-09-26T11:38:15.970Z,76
2022-09-26T11:39:23.025Z,76
2022-09-26T11:40:29.684Z,76
2022-09-26T11:41:36.845Z,76
2022-09-26T11:42:43.823Z,76
2022-09-26T11:43:50.925Z,76
2022-09-26T11:44:58.216Z,75
2022-09-26T11:46:04.692Z,75
2022-09-26T11:47:11.884Z,75
2022-09-26T11:48:18.854Z,75
2022-09-26T11:49:25.943Z,74
2022-09-26T11:50:32.615Z,74
2022-09-26T11:51:39.655Z,73
2022-09-26T11:52:49.151Z,73
2022-09-26T11:53:53.833Z,73
2022-09-26T11:55:00.932Z,73
2022-09-26T11:56:07.585Z,73
2022-09-26T11:57:14.626Z,73
2022-09-26T12:00:35.981Z,72
2022-09-26T12:01:43.062Z,73
2022-09-26T12:02:49.764Z,73
2022-09-26T12:03:56.819Z,73
2022-09-26T12:06:10.955Z,74
2022-09-26T12:07:17.575Z,74
2022-09-26T12:08:24.645Z,73
2022-09-26T12:09:31.821Z,73
2022-09-26T12:10:38.914Z,73
2022-09-26T12:11:45.994Z,74
2022-09-26T12:12:52.613Z,73
2022-09-26T12:13:59.627Z,73
2022-09-26T12:15:06.809Z,73
2022-09-26T12:16:13.982Z,72
2022-09-26T12:17:21.547Z,72
2022-09-26T12:18:27.575Z,72
2022-09-26T12:19:34.610Z,71
2022-09-26T12:20:41.718Z,70
2022-09-26T12:21:48.946Z,70
2022-09-26T12:22:56.019Z,69
2022-09-26T12:24:02.552Z,69
2022-09-26T12:25:09.694Z,69
2022-09-26T12:26:16.761Z,69
2022-09-26T12:27:23.954Z,69
2022-09-26T12:28:30.938Z,69
2022-09-26T12:29:37.592Z,69
2022-09-26T12:30:44.907Z,69
2022-09-26T12:31:51.903Z,69
2022-09-26T12:32:59.071Z,69
2022-09-26T12:34:06.144Z,69
2022-09-26T12:35:12.599Z,69
2022-09-26T12:36:19.706Z,69
2022-09-26T12:37:26.779Z,69
2022-09-26T12:38:33.943Z,69
2022-09-26T12:39:40.483Z,70
2022-09-26T12:41:54.665Z,70
2022-09-26T12:43:01.812Z,70
2022-09-26T12:44:08.947Z,71
2022-09-26T12:45:15.435Z,70
2022-09-26T12:47:29.713Z,70
2022-09-26T12:48:36.804Z,70
2022-09-26T12:49:43.943Z,70
2022-09-26T12:50:51.056Z,71
2022-09-26T12:51:57.557Z,71
2022-09-26T12:53:04.678Z,71
2022-09-26T12:54:11.854Z,71
2022-09-26T12:55:18.945Z,71
2022-09-26T12:56:25.512Z,71
2022-09-26T12:57:32.600Z,71
2022-09-26T12:58:40.791Z,71
2022-09-26T12:59:46.888Z,71
2022-09-26T13:00:53.963Z,70
2022-09-26T13:03:07.795Z,70
2022-09-26T13:04:14.713Z,71
2022-09-26T13:05:21.856Z,71
2022-09-26T13:06:28.941Z,71
2022-09-26T13:07:35.498Z,70
2022-09-26T13:08:42.573Z,70
2022-09-26T13:09:49.744Z,69
2022-09-26T13:10:56.852Z,69
2022-09-26T13:12:03.917Z,69
2022-09-26T13:13:11.048Z,69
2022-09-26T13:15:24.748Z,69
2022-09-26T13:16:31.891Z,68
2022-09-26T13:17:38.929Z,68
2022-09-26T13:18:45.617Z,68
2022-09-26T13:19:52.634Z,68
2022-09-26T13:21:00.303Z,68
2022-09-26T13:23:14.004Z,68
2022-09-26T13:24:20.522Z,68
2022-09-26T13:25:27.675Z,68
2022-09-26T13:26:34.747Z,69
2022-09-26T13:27:41.886Z,68
2022-09-26T13:29:12.980Z,68
2022-09-26T13:29:55.597Z,68
2022-09-26T13:31:02.754Z,68
2022-09-26T13:32:10.662Z,68
2022-09-26T13:34:24.056Z,69
2022-09-26T13:35:30.583Z,69
2022-09-26T13:36:37.701Z,70
2022-09-26T13:37:44.815Z,70
2022-09-26T13:38:51.892Z,71
2022-09-26T13:40:00.493Z,71
2022-09-26T13:41:05.589Z,71
2022-09-26T13:43:23.980Z,72
2022-09-26T13:44:26.915Z,72
2022-09-26T13:45:33.925Z,72
2022-09-26T13:46:40.678Z,72
2022-09-26T13:47:47.803Z,72
2022-09-26T13:48:54.808Z,71
2022-09-26T13:50:01.989Z,72
2022-09-26T13:51:08.496Z,72
2022-09-26T13:52:15.617Z,72
2022-09-26T13:53:22.681Z,71
2022-09-26T13:54:29.858Z,71
2022-09-26T13:55:36.921Z,70
2022-09-26T13:56:43.455Z,70
2022-09-26T13:57:50.597Z,69
2022-09-26T13:58:57.723Z,69
2022-09-26T14:00:04.799Z,68
2022-09-26T14:01:11.921Z,68
2022-09-26T14:02:19.127Z,68
2022-09-26T14:04:32.750Z,68
2022-09-26T14:06:49.922Z,68
2022-09-26T14:07:53.437Z,68
2022-09-26T14:09:00.651Z,68
2022-09-26T14:10:07.789Z,68
2022-09-26T14:11:14.907Z,67
2022-09-26T14:12:22.033Z,67
2022-09-26T14:13:28.572Z,67
2022-09-26T14:14:35.714Z,67
2022-09-26T14:15:42.792Z,68
2022-09-26T14:16:50.007Z,68
2022-09-26T14:17:56.968Z,68
2022-09-26T14:19:03.532Z,68
2022-09-26T14:20:10.785Z,68
2022-09-26T14:21:18.791Z,68
2022-09-26T14:22:25.196Z,68
2022-09-26T14:23:31.997Z,68
2022-09-26T14:24:39.605Z,68
2022-09-26T14:25:46.692Z,68
2022-09-26T14:26:52.742Z,68
2022-09-26T14:27:59.864Z,68
2022-09-26T14:29:06.996Z,67
2022-09-26T14:30:13.512Z,67
2022-09-26T14:31:20.733Z,67
2022-09-26T14:32:27.734Z,67
2022-09-26T14:33:35.869Z,67
2022-09-26T14:34:42.006Z,67
2022-09-26T14:35:48.555Z,67
2022-09-26T14:36:55.687Z,67
2022-09-26T14:38:02.806Z,67
2022-09-26T14:39:09.898Z,67
2022-09-26T14:40:17.108Z,66
2022-09-26T14:41:23.527Z,66
2022-09-26T14:42:30.632Z,66
2022-09-26T14:43:38.250Z,66
2022-09-26T14:45:52.071Z,66
2022-09-26T14:46:58.524Z,65
2022-09-26T14:48:05.707Z,65
2022-09-26T14:49:13.001Z,64
2022-09-26T14:50:19.935Z,64
2022-09-26T14:51:27.049Z,64
2022-09-26T14:52:33.557Z,64
2022-09-26T14:53:40.794Z,64
2022-09-26T14:54:47.844Z,63
2022-09-26T14:55:54.927Z,63
2022-09-26T14:57:02.027Z,63
2022-09-26T14:58:08.561Z,63
2022-09-26T14:59:15.830Z,64
2022-09-26T15:00:22.801Z,64
2022-09-26T15:02:37.606Z,64
2022-09-26T15:03:43.594Z,64
2022-09-26T15:04:51.096Z,64
2022-09-26T15:05:57.230Z,64
2022-09-26T15:07:04.863Z,64
2022-09-26T15:08:11.477Z,65
2022-09-26T15:10:26.730Z,65
2022-09-26T15:11:32.736Z,66
2022-09-26T15:12:40.047Z,66
2022-09-26T15:13:46.975Z,66
2022-09-26T15:14:53.586Z,66
2022-09-26T15:16:00.895Z,66
2022-09-26T15:17:07.937Z,67
2022-09-26T15:18:14.861Z,67
2022-09-26T15:19:21.687Z,67
2022-09-26T15:20:28.741Z,67
2022-09-26T15:21:36.349Z,67
2022-09-26T15:22:43.423Z,67
2022-09-26T15:23:50.059Z,67
2022-09-26T15:24:56.639Z,67
2022-09-26T15:27:10.793Z,67
2022-09-26T15:28:18.444Z,67
2022-09-26T15:29:25.006Z,68
2022-09-26T15:30:31.492Z,68
2022-09-26T15:31:38.802Z,68
2022-09-26T15:32:45.746Z,68
2022-09-26T15:33:52.888Z,68
2022-09-26T15:34:59.968Z,68
2022-09-26T15:36:06.586Z,68
2022-09-26T15:37:13.558Z,68
2022-09-26T15:38:20.827Z,67
2022-09-26T15:39:28.336Z,67
2022-09-26T15:40:34.961Z,67
2022-09-26T15:41:41.615Z,67
2022-09-26T15:42:48.674Z,67
2022-09-26T15:43:56.361Z,67
2022-09-26T15:45:03.716Z,68
2022-09-26T15:46:10.161Z,68
2022-09-26T15:47:16.504Z,68
2022-09-26T15:48:23.669Z,68
2022-09-26T15:49:30.709Z,68
2022-09-26T15:50:37.967Z,68
2022-09-26T15:51:44.965Z,68
2022-09-26T15:52:51.573Z,68
2022-09-26T15:53:58.710Z,69
2022-09-26T15:55:05.737Z,69
2022-09-26T15:56:12.963Z,69
2022-09-26T15:57:19.969Z,70
2022-09-26T15:58:26.575Z,71
2022-09-26T15:59:37.366Z,71
2022-09-26T16:00:40.740Z,71
2022-09-26T16:01:48.068Z,72
2022-09-26T16:02:55.140Z,72
2022-09-26T16:04:01.520Z,72
2022-09-26T16:05:12.552Z,72
2022-09-26T16:06:15.827Z,72
2022-09-26T16:08:29.552Z,72
2022-09-26T16:09:36.762Z,72
2022-09-26T16:10:43.717Z,72
2022-09-26T16:11:50.876Z,72
2022-09-26T16:14:04.498Z,72
2022-09-26T16:15:11.611Z,72
2022-09-26T16:16:18.975Z,72
2022-09-26T16:17:25.927Z,72
2022-09-26T16:18:32.900Z,72
2022-09-26T16:19:39.521Z,72
2022-09-26T16:20:46.547Z,72
2022-09-26T16:23:04.717Z,71
2022-09-26T16:24:07.955Z,71
2022-09-26T16:25:15.459Z,71
2022-09-26T16:26:21.690Z,71
2022-09-26T16:27:28.707Z,71
2022-09-26T16:28:35.825Z,71
2022-09-26T16:30:49.780Z,70
2022-09-26T16:31:57.209Z,70
2022-09-26T16:33:03.786Z,70
2022-09-26T16:34:12.452Z,70
2022-09-26T16:35:17.863Z,69
2022-09-26T16:36:24.522Z,69
2022-09-26T16:37:31.661Z,68
2022-09-26T16:38:38.761Z,68
2022-09-26T16:39:45.907Z,68
2022-09-26T16:40:52.994Z,68
2022-09-26T16:42:02.236Z,68
2022-09-26T16:43:06.735Z,68
2022-09-26T16:44:13.818Z,67
2022-09-26T16:45:20.845Z,67
2022-09-26T16:46:28.084Z,67
2022-09-26T16:47:34.461Z,67
2022-09-26T16:48:41.717Z,66
2022-09-26T16:49:48.724Z,66
2022-09-26T16:50:55.906Z,66
2022-09-26T16:52:03.019Z,67
2022-09-26T16:53:09.480Z,67
2022-09-26T16:54:16.603Z,67
2022-09-26T16:55:23.722Z,67
2022-09-26T16:56:30.815Z,67
2022-09-26T16:57:37.907Z,67
2022-09-26T16:58:44.460Z,68
2022-09-26T16:59:51.618Z,68
2022-09-26T17:00:58.792Z,68
2022-09-26T17:02:06.092Z,68
2022-09-26T17:03:13.052Z,67
2022-09-26T17:05:26.723Z,66
2022-09-26T17:06:34.845Z,66
2022-09-26T17:07:40.895Z,66
2022-09-26T17:08:48.260Z,65
2022-09-26T17:09:54.699Z,65
2022-09-26T17:11:01.699Z,65
2022-09-26T17:12:08.739Z,65
2022-09-26T17:13:15.845Z,66
2022-09-26T17:14:22.380Z,66
2022-09-26T17:15:29.554Z,66
2022-09-26T17:17:43.799Z,66
2022-09-26T17:18:50.868Z,67
2022-09-26T17:19:59.570Z,66
2022-09-26T17:21:04.479Z,66
2022-09-26T17:22:11.689Z,65